Decoded Metar for KVTN (VALENTINE in NE, USA) (IATA:VTN) | Meteo·Mobile Aviation Weather
aviador You're here:

KVTN Decoded Metar

VALENTINE in NE, USA
Report Time2018-12-19 04:52:00
UTC Time2018-12-19 05:40:53
Flight Rules vfr VFR
Wind240° at 05 kt
W.Decomp.*RWY 21: 4.6 kt HW 1.9 kt RCW
RWY 32: 0.2 kt HW 5 kt LCW
W.Rank240° ranks 15
Current wind is below 240° avg. (7.0)
Visibility9999 m
Phenomena:N/A
Clouds:N/A
Expected CloudBase > 800 ft AGL from Temp-Dew spread
CeilingNone
Temp-2°C (ISA -12)
Dew Point-4°C (86% RH)
AAT-6.3°C
QNH1005 hPa
Density Alt1,483 ft
Elevation2,585 ft
Report Wrong Elevation
Raw Report
KVTN 190452Z AUTO 24005KT 10SM CLR M02/M04 A2969 RMK AO2 SLP070
T10221039 $=

Extra information for KVTN:More info

Metar Taf Metar & Taf Last 4 Metars F.Rules Stats Wind Profile Meteogram Temp Stats Airport Information Weather charts Add Link Nearby VenuesMetar ALERT Operation Metar Decoded Social comments

AIRNAV info for KVTN